createdAt,value
2022-11-14T00:00:31.358Z,58.68
2022-11-14T00:03:01.373Z,58.59
2022-11-14T00:05:29.386Z,58.66
2022-11-14T00:07:57.058Z,58.76
2022-11-14T00:10:26.528Z,58.76
2022-11-14T00:12:54.259Z,58.56
2022-11-14T00:15:21.948Z,58.66
2022-11-14T00:17:49.726Z,58.58
2022-11-14T00:20:17.500Z,58.62
2022-11-14T00:22:45.214Z,58.56
2022-11-14T00:25:13.245Z,58.49
2022-11-14T00:27:42.280Z,58.33
2022-11-14T00:30:10.506Z,58.50
2022-11-14T00:32:38.200Z,58.49
2022-11-14T00:35:06.397Z,58.43
2022-11-14T00:37:34.069Z,58.35
2022-11-14T00:40:02.063Z,58.49
2022-11-14T00:42:29.725Z,58.37
2022-11-14T00:44:58.748Z,58.52
2022-11-14T00:47:26.449Z,58.31
2022-11-14T00:49:54.086Z,58.35
2022-11-14T00:52:21.716Z,58.43
2022-11-14T00:54:49.390Z,58.42
2022-11-14T00:57:17.074Z,58.30
2022-11-14T00:59:44.785Z,58.42
2022-11-14T01:02:13.893Z,58.33
2022-11-14T01:04:41.542Z,58.29
2022-11-14T01:07:09.264Z,58.30
2022-11-14T01:09:36.960Z,58.22
2022-11-14T01:12:05.123Z,58.09
2022-11-14T01:14:32.739Z,58.31
2022-11-14T01:17:00.430Z,58.25
2022-11-14T01:19:29.480Z,58.20
2022-11-14T01:21:59.621Z,58.30
2022-11-14T01:24:32.987Z,58.14
2022-11-14T01:27:00.732Z,58.14
2022-11-14T01:29:28.902Z,58.22
2022-11-14T01:31:56.969Z,58.05
2022-11-14T01:34:24.871Z,57.96
2022-11-14T01:36:53.866Z,57.89
2022-11-14T01:39:21.571Z,57.91
2022-11-14T01:41:49.230Z,57.80
2022-11-14T01:44:18.950Z,58.19
2022-11-14T01:46:52.822Z,57.79
2022-11-14T01:49:23.527Z,57.70
2022-11-14T01:51:59.280Z,57.60
2022-11-14T01:54:30.839Z,57.81
2022-11-14T01:57:01.616Z,57.52
2022-11-14T01:59:34.528Z,57.65
2022-11-14T02:02:07.558Z,57.86
2022-11-14T02:04:39.262Z,57.78
2022-11-14T02:07:10.512Z,57.76
2022-11-14T02:09:42.552Z,57.78
2022-11-14T02:12:13.680Z,57.82
2022-11-14T02:14:45.176Z,57.66
2022-11-14T02:17:30.637Z,57.91
2022-11-14T02:20:07.297Z,57.52
2022-11-14T02:22:35.052Z,57.60
2022-11-14T02:25:03.003Z,57.33
2022-11-14T02:27:31.504Z,57.49
2022-11-14T02:30:05.615Z,57.43
2022-11-14T02:32:57.057Z,57.42
2022-11-14T02:35:22.361Z,57.24
2022-11-14T02:37:50.048Z,57.27
2022-11-14T02:40:18.152Z,57.30
2022-11-14T02:42:45.865Z,57.08
2022-11-14T02:45:14.262Z,57.29
2022-11-14T02:47:41.970Z,57.05
2022-11-14T02:50:10.394Z,57.26
2022-11-14T02:52:39.417Z,57.19
2022-11-14T02:55:07.881Z,57.05
2022-11-14T02:57:35.550Z,57.25
2022-11-14T03:00:03.281Z,57.09
2022-11-14T03:02:30.939Z,57.22
2022-11-14T03:04:58.696Z,56.86
2022-11-14T03:07:26.429Z,57.15
2022-11-14T03:09:55.456Z,57.05
2022-11-14T03:12:23.174Z,57.26
2022-11-14T03:14:50.863Z,56.88
2022-11-14T03:17:18.542Z,57.14
2022-11-14T03:19:46.315Z,56.92
2022-11-14T03:22:13.979Z,56.77
2022-11-14T03:24:41.657Z,57.10
2022-11-14T03:27:10.677Z,56.97
2022-11-14T03:29:38.428Z,56.50
2022-11-14T03:32:06.413Z,57.09
2022-11-14T03:34:34.217Z,56.77
2022-11-14T03:37:02.174Z,57.05
2022-11-14T03:39:29.846Z,57.05
2022-11-14T03:41:57.474Z,57.04
2022-11-14T03:44:26.527Z,57.19
2022-11-14T03:46:54.192Z,56.73
2022-11-14T03:49:21.797Z,56.88
2022-11-14T03:51:50.612Z,56.72
2022-11-14T03:54:18.240Z,57.07
2022-11-14T03:56:45.868Z,56.62
2022-11-14T03:59:13.533Z,56.78
2022-11-14T04:01:42.571Z,57.13
2022-11-14T04:04:12.485Z,57.20
2022-11-14T04:06:40.182Z,56.90
2022-11-14T04:09:07.871Z,57.14
2022-11-14T04:11:35.480Z,57.03
2022-11-14T04:14:03.150Z,56.90
2022-11-14T04:16:30.838Z,56.77
2022-11-14T04:18:59.841Z,57.29
2022-11-14T04:21:27.529Z,57.13
2022-11-14T04:23:55.188Z,56.64
2022-11-14T04:26:22.849Z,56.98
2022-11-14T04:28:50.521Z,56.64
2022-11-14T04:31:18.177Z,56.94
2022-11-14T04:33:45.822Z,56.58
2022-11-14T04:36:14.826Z,56.46
2022-11-14T04:38:42.495Z,56.45
2022-11-14T04:41:10.505Z,56.42
2022-11-14T04:43:38.190Z,56.48
2022-11-14T04:46:05.881Z,56.48
2022-11-14T04:48:33.564Z,56.25
2022-11-14T04:51:01.194Z,56.44
2022-11-14T04:53:30.214Z,56.36
2022-11-14T04:55:57.846Z,56.76
2022-11-14T04:58:26.498Z,56.63
2022-11-14T05:00:54.270Z,56.66
2022-11-14T05:03:21.909Z,56.91
2022-11-14T05:05:49.518Z,56.77
2022-11-14T05:08:17.369Z,56.91
2022-11-14T05:10:47.218Z,56.57
2022-11-14T05:13:14.907Z,56.34
2022-11-14T05:15:42.589Z,56.08
2022-11-14T05:18:10.278Z,56.10
2022-11-14T05:20:37.942Z,56.53
2022-11-14T05:23:05.857Z,56.27
2022-11-14T05:25:33.546Z,56.25
2022-11-14T05:28:02.960Z,56.31
2022-11-14T05:30:31.167Z,56.28
2022-11-14T05:32:58.838Z,56.45
2022-11-14T05:35:26.515Z,56.85
2022-11-14T05:37:58.884Z,56.34
2022-11-14T05:40:27.646Z,56.74
2022-11-14T05:42:56.082Z,56.79
2022-11-14T05:45:25.097Z,56.25
2022-11-14T05:47:53.850Z,56.99
2022-11-14T05:50:21.949Z,56.78
2022-11-14T05:52:49.584Z,56.39
2022-11-14T05:55:21.827Z,56.40
2022-11-14T05:57:52.208Z,56.67
2022-11-14T06:00:20.136Z,56.46
2022-11-14T06:02:49.122Z,56.19
2022-11-14T06:05:16.930Z,56.56
2022-11-14T06:07:44.545Z,56.63
2022-11-14T06:10:13.482Z,56.69
2022-11-14T06:12:41.480Z,56.43
2022-11-14T06:15:09.711Z,56.33
2022-11-14T06:17:37.357Z,56.10
2022-11-14T06:20:07.902Z,56.47
2022-11-14T06:22:35.990Z,56.49
2022-11-14T06:25:03.739Z,56.43
2022-11-14T06:27:31.379Z,56.33
2022-11-14T06:29:59.189Z,56.21
2022-11-14T06:32:26.867Z,56.46
2022-11-14T06:34:54.500Z,56.26
2022-11-14T06:37:23.572Z,56.04
2022-11-14T06:39:51.202Z,55.84
2022-11-14T06:42:18.882Z,56.18
2022-11-14T06:44:46.501Z,55.97
2022-11-14T06:47:14.192Z,56.08
2022-11-14T06:49:41.814Z,56.12
2022-11-14T06:52:09.506Z,55.92
2022-11-14T06:54:38.515Z,55.64
2022-11-14T06:57:06.402Z,55.89
2022-11-14T06:59:34.117Z,55.83
2022-11-14T07:02:01.788Z,55.47
2022-11-14T07:04:29.414Z,55.87
2022-11-14T07:06:57.108Z,56.12
2022-11-14T07:09:24.838Z,56.10
2022-11-14T07:11:53.874Z,55.88
2022-11-14T07:14:21.542Z,55.81
2022-11-14T07:16:49.180Z,56.08
2022-11-14T07:19:16.927Z,55.91
2022-11-14T07:21:44.609Z,55.40
2022-11-14T07:24:12.391Z,55.93
2022-11-14T07:26:40.033Z,55.56
2022-11-14T07:29:09.019Z,56.11
2022-11-14T07:31:36.710Z,56.18
2022-11-14T07:34:05.980Z,56.02
2022-11-14T07:36:33.646Z,56.49
2022-11-14T07:39:01.305Z,55.61
2022-11-14T07:41:28.986Z,56.08
2022-11-14T07:43:57.185Z,56.03
2022-11-14T07:46:26.204Z,55.99
2022-11-14T07:48:53.981Z,55.75
2022-11-14T07:51:21.853Z,55.79
2022-11-14T07:53:49.510Z,56.43
2022-11-14T07:56:17.730Z,55.92
2022-11-14T07:58:45.514Z,56.18
2022-11-14T08:01:14.996Z,56.10
2022-11-14T08:03:46.144Z,56.74
2022-11-14T08:06:15.587Z,56.64
2022-11-14T08:08:43.523Z,56.04
2022-11-14T08:11:11.412Z,56.77
2022-11-14T08:13:39.072Z,56.38
2022-11-14T08:16:12.466Z,56.99
2022-11-14T08:18:41.331Z,57.04
2022-11-14T08:21:10.356Z,57.13
2022-11-14T08:23:38.765Z,56.80
2022-11-14T08:26:06.844Z,56.82
2022-11-14T08:28:34.777Z,56.59
2022-11-14T08:31:03.916Z,56.55
2022-11-14T08:33:32.510Z,56.67
2022-11-14T08:36:02.070Z,57.17
2022-11-14T08:38:32.816Z,57.19
2022-11-14T08:41:01.587Z,57.01
2022-11-14T08:43:29.291Z,57.10
2022-11-14T08:46:01.474Z,56.99
2022-11-14T08:48:31.059Z,57.28
2022-11-14T08:50:59.169Z,56.97
2022-11-14T08:53:26.911Z,56.68
2022-11-14T08:55:56.014Z,56.02
2022-11-14T08:58:23.687Z,55.82
2022-11-14T09:00:52.031Z,55.29
2022-11-14T09:03:19.847Z,55.12
2022-11-14T09:05:52.380Z,54.84
2022-11-14T09:08:20.082Z,54.25
2022-11-14T09:10:47.841Z,54.20
2022-11-14T09:13:17.117Z,53.70
2022-11-14T09:15:45.086Z,53.38
2022-11-14T09:18:13.428Z,53.29
2022-11-14T09:20:41.185Z,53.15
2022-11-14T09:23:08.916Z,52.96
2022-11-14T09:25:37.293Z,52.89
2022-11-14T09:28:06.427Z,52.82
2022-11-14T09:30:35.930Z,52.99
2022-11-14T09:33:11.166Z,53.08
2022-11-14T09:35:39.369Z,52.98
2022-11-14T09:38:08.876Z,52.97
2022-11-14T09:40:52.813Z,52.91
2022-11-14T09:43:40.701Z,52.84
2022-11-14T09:46:18.526Z,52.77
2022-11-14T09:48:46.294Z,52.92
2022-11-14T09:51:17.768Z,52.82
2022-11-14T09:53:52.981Z,52.72
2022-11-14T09:56:25.693Z,52.99
2022-11-14T09:58:55.578Z,52.89
2022-11-14T10:01:33.306Z,53.45
2022-11-14T10:04:09.668Z,54.16
2022-11-14T10:06:46.569Z,54.74
2022-11-14T10:09:35.110Z,55.37
2022-11-14T10:12:10.772Z,55.88
2022-11-14T10:14:59.952Z,56.39
2022-11-14T10:17:52.017Z,56.65
2022-11-14T10:20:25.045Z,56.87
2022-11-14T10:23:07.326Z,57.30
2022-11-14T10:25:47.086Z,57.26
2022-11-14T10:28:40.490Z,57.88
2022-11-14T10:31:20.753Z,57.90
2022-11-14T10:33:57.989Z,58.21
2022-11-14T10:36:46.191Z,57.88
2022-11-14T10:39:20.340Z,58.46
2022-11-14T10:41:57.783Z,58.45
2022-11-14T10:44:33.794Z,58.39
2022-11-14T10:47:05.380Z,58.60
2022-11-14T10:49:38.577Z,58.91
2022-11-14T10:52:10.878Z,59.13
2022-11-14T10:54:46.055Z,59.34
2022-11-14T10:57:17.028Z,59.09
2022-11-14T10:59:44.763Z,59.12
2022-11-14T11:02:12.971Z,59.60
2022-11-14T11:04:43.245Z,59.50
2022-11-14T11:07:41.076Z,59.45
2022-11-14T11:10:39.519Z,59.66
2022-11-14T11:13:07.312Z,60.02
2022-11-14T11:15:41.837Z,59.98
2022-11-14T11:18:26.885Z,60.05
2022-11-14T11:21:09.023Z,60.28
2022-11-14T11:23:37.698Z,60.22
2022-11-14T11:26:09.016Z,60.12
2022-11-14T11:28:38.316Z,60.36
2022-11-14T11:31:08.087Z,60.47
2022-11-14T11:33:37.356Z,60.46
2022-11-14T11:36:13.289Z,60.57
2022-11-14T11:38:41.711Z,60.61
2022-11-14T11:41:56.369Z,60.48
2022-11-14T11:44:17.036Z,60.34
2022-11-14T11:46:53.000Z,60.36
2022-11-14T11:49:29.215Z,60.52
2022-11-14T11:52:05.700Z,60.59
2022-11-14T11:54:52.468Z,60.60
2022-11-14T11:57:29.381Z,60.46
2022-11-14T12:00:00.362Z,60.90
2022-11-14T12:02:29.003Z,60.54
2022-11-14T12:04:58.552Z,60.93
2022-11-14T12:07:38.740Z,60.61
2022-11-14T12:10:15.210Z,60.56
2022-11-14T12:13:09.323Z,61.25
2022-11-14T12:15:48.731Z,60.83
2022-11-14T12:18:36.802Z,61.06
2022-11-14T12:21:13.461Z,60.82
2022-11-14T12:24:12.143Z,60.99
2022-11-14T12:27:11.165Z,61.00
2022-11-14T12:29:54.951Z,61.17
2022-11-14T12:32:31.378Z,61.23
2022-11-14T12:35:00.896Z,61.28
2022-11-14T12:37:34.219Z,61.27
2022-11-14T12:40:06.100Z,61.12
2022-11-14T12:42:34.295Z,61.09
2022-11-14T12:45:02.019Z,61.14
2022-11-14T12:47:30.389Z,61.16
2022-11-14T12:50:06.373Z,61.15
2022-11-14T12:52:49.346Z,61.06
2022-11-14T12:56:02.655Z,60.95
2022-11-14T12:58:58.172Z,60.91
2022-11-14T13:01:46.269Z,60.83
2022-11-14T13:04:25.408Z,60.55
2022-11-14T13:07:07.810Z,60.02
2022-11-14T13:09:42.593Z,59.51
2022-11-14T13:12:50.458Z,58.89
2022-11-14T13:15:48.812Z,58.18
2022-11-14T13:18:56.720Z,57.51
2022-11-14T13:21:45.812Z,57.37
2022-11-14T13:24:16.208Z,57.30
2022-11-14T13:26:52.117Z,57.97
2022-11-14T13:29:59.932Z,57.79
2022-11-14T13:33:06.374Z,58.17
2022-11-14T13:35:52.900Z,58.36
2022-11-14T13:38:51.613Z,58.49
2022-11-14T13:41:47.995Z,58.75
2022-11-14T13:44:48.623Z,59.08
2022-11-14T13:47:30.211Z,59.15
2022-11-14T13:50:03.520Z,59.78
2022-11-14T13:52:34.347Z,59.44
2022-11-14T13:55:03.162Z,59.67
2022-11-14T13:57:45.451Z,59.37
2022-11-14T14:00:20.076Z,59.40
2022-11-14T14:03:11.874Z,59.80
2022-11-14T14:06:04.155Z,59.75
2022-11-14T14:08:54.458Z,59.92
2022-11-14T14:11:42.714Z,59.78
2022-11-14T14:14:26.156Z,59.76
2022-11-14T14:16:58.170Z,60.03
2022-11-14T14:19:43.237Z,60.08
2022-11-14T14:22:18.186Z,60.14
2022-11-14T14:24:57.410Z,60.13
2022-11-14T14:27:30.815Z,60.17
2022-11-14T14:30:05.608Z,60.26
2022-11-14T14:32:33.317Z,60.10
2022-11-14T14:35:01.149Z,60.36
2022-11-14T14:37:30.757Z,60.24
2022-11-14T14:40:02.165Z,60.23
2022-11-14T14:42:38.038Z,60.26
2022-11-14T14:45:14.889Z,60.31
2022-11-14T14:47:43.334Z,60.43
2022-11-14T14:50:18.483Z,60.27
2022-11-14T14:52:46.265Z,60.47
2022-11-14T14:55:24.335Z,60.47
2022-11-14T14:57:52.109Z,60.68
2022-11-14T15:00:23.194Z,60.54
2022-11-14T15:02:51.314Z,60.73
2022-11-14T15:05:27.106Z,60.80
2022-11-14T15:07:58.119Z,60.50
2022-11-14T15:10:30.588Z,60.52
2022-11-14T15:12:59.548Z,60.42
2022-11-14T15:15:28.872Z,60.79
2022-11-14T15:17:58.647Z,60.37
2022-11-14T15:20:29.046Z,60.15
2022-11-14T15:23:06.275Z,60.68
2022-11-14T15:25:35.467Z,60.48
2022-11-14T15:28:03.806Z,60.52
2022-11-14T15:30:34.808Z,60.52
2022-11-14T15:33:04.570Z,60.56
2022-11-14T15:35:34.060Z,60.33
2022-11-14T15:38:37.029Z,60.61
2022-11-14T15:41:18.789Z,60.83
2022-11-14T15:43:50.415Z,60.68
2022-11-14T15:46:40.239Z,60.67
2022-11-14T15:49:20.445Z,60.74
2022-11-14T15:51:51.547Z,60.09
2022-11-14T15:54:24.609Z,59.66
2022-11-14T15:56:54.941Z,59.06
2022-11-14T15:59:23.273Z,58.58
2022-11-14T16:01:53.933Z,57.77
2022-11-14T16:04:24.236Z,57.52
2022-11-14T16:06:52.010Z,57.42
2022-11-14T16:09:21.944Z,57.61
2022-11-14T16:11:49.616Z,58.04
2022-11-14T16:14:18.634Z,58.33
2022-11-14T16:16:46.315Z,58.46
2022-11-14T16:19:15.389Z,58.76
2022-11-14T16:21:43.513Z,58.86
2022-11-14T16:24:19.926Z,59.33
2022-11-14T16:26:47.963Z,59.34
2022-11-14T16:29:15.771Z,59.38
2022-11-14T16:31:44.858Z,59.66
2022-11-14T16:34:17.759Z,59.66
2022-11-14T16:36:46.113Z,59.57
2022-11-14T16:39:14.400Z,59.54
2022-11-14T16:41:42.140Z,59.58
2022-11-14T16:44:14.848Z,59.74
2022-11-14T16:46:44.199Z,59.77
2022-11-14T16:49:14.879Z,59.45
2022-11-14T16:51:48.776Z,59.71
2022-11-14T16:54:17.573Z,59.54
2022-11-14T16:56:45.340Z,59.78
2022-11-14T16:59:13.563Z,59.82
2022-11-14T17:01:41.224Z,59.52
2022-11-14T17:04:10.293Z,59.48
2022-11-14T17:06:37.990Z,59.22
2022-11-14T17:09:05.630Z,58.62
2022-11-14T17:11:33.334Z,57.92
2022-11-14T17:14:01.046Z,57.38
2022-11-14T17:16:28.697Z,56.50
2022-11-14T17:18:57.301Z,56.47
2022-11-14T17:21:26.424Z,55.89
2022-11-14T17:23:55.765Z,55.63
2022-11-14T17:26:23.465Z,55.62
2022-11-14T17:28:51.169Z,56.21
2022-11-14T17:31:19.470Z,56.67
2022-11-14T17:33:52.262Z,57.00
2022-11-14T17:36:20.865Z,57.15
2022-11-14T17:38:49.873Z,57.41
2022-11-14T17:41:17.588Z,57.61
2022-11-14T17:43:45.352Z,57.78
2022-11-14T17:46:16.375Z,57.98
2022-11-14T17:48:44.505Z,58.05
2022-11-14T17:51:13.904Z,57.84
2022-11-14T17:53:42.493Z,58.29
2022-11-14T17:56:18.549Z,58.49
2022-11-14T17:58:47.055Z,58.13
2022-11-14T18:01:17.358Z,58.36
2022-11-14T18:03:45.185Z,58.39
2022-11-14T18:06:15.252Z,58.58
2022-11-14T18:08:43.086Z,58.42
2022-11-14T18:11:13.862Z,58.81
2022-11-14T18:13:42.199Z,58.58
2022-11-14T18:16:12.935Z,58.57
2022-11-14T18:18:41.109Z,58.48
2022-11-14T18:21:09.962Z,58.45
2022-11-14T18:23:38.687Z,58.65
2022-11-14T18:26:15.402Z,58.80
2022-11-14T18:28:43.672Z,58.58
2022-11-14T18:31:13.391Z,58.74
2022-11-14T18:33:42.687Z,58.72
2022-11-14T18:36:13.467Z,58.52
2022-11-14T18:38:41.753Z,58.66
2022-11-14T18:41:11.182Z,58.59
2022-11-14T18:43:40.343Z,58.48
2022-11-14T18:46:09.253Z,57.93
2022-11-14T18:48:38.333Z,57.64
2022-11-14T18:51:08.788Z,56.87
2022-11-14T18:53:37.349Z,56.22
2022-11-14T18:56:06.443Z,55.74
2022-11-14T18:58:36.031Z,54.92
2022-11-14T19:01:12.080Z,55.15
2022-11-14T19:03:40.206Z,54.99
2022-11-14T19:06:09.742Z,55.09
2022-11-14T19:08:37.550Z,55.66
2022-11-14T19:11:07.421Z,55.90
2022-11-14T19:13:35.132Z,56.19
2022-11-14T19:16:03.349Z,56.33
2022-11-14T19:18:32.966Z,56.52
2022-11-14T19:21:02.417Z,56.57
2022-11-14T19:23:31.239Z,56.57
2022-11-14T19:26:00.747Z,56.66
2022-11-14T19:28:29.709Z,56.80
2022-11-14T19:31:01.784Z,56.86
2022-11-14T19:33:29.883Z,56.78
2022-11-14T19:35:59.298Z,57.12
2022-11-14T19:38:26.970Z,57.45
2022-11-14T19:40:54.645Z,57.33
2022-11-14T19:43:22.631Z,57.44
2022-11-14T19:45:50.317Z,57.39
2022-11-14T19:48:18.447Z,57.48
2022-11-14T19:50:46.108Z,57.86
2022-11-14T19:53:15.336Z,57.63
2022-11-14T19:55:43.082Z,57.67
2022-11-14T19:58:10.765Z,57.82
2022-11-14T20:00:38.467Z,57.93
2022-11-14T20:03:06.128Z,57.94
2022-11-14T20:05:33.857Z,58.04
2022-11-14T20:08:01.516Z,58.19
2022-11-14T20:10:30.556Z,58.05
2022-11-14T20:12:58.251Z,58.29
2022-11-14T20:15:26.114Z,58.34
2022-11-14T20:17:53.880Z,58.35
2022-11-14T20:20:21.605Z,58.15
2022-11-14T20:22:49.277Z,58.57
2022-11-14T20:25:17.053Z,58.34
2022-11-14T20:27:46.177Z,58.48
2022-11-14T20:30:14.311Z,58.55
2022-11-14T20:32:42.034Z,58.50
2022-11-14T20:35:09.802Z,58.81
2022-11-14T20:37:37.508Z,58.69
2022-11-14T20:40:06.019Z,58.56
2022-11-14T20:42:33.739Z,58.70
2022-11-14T20:45:02.761Z,58.84
2022-11-14T20:47:30.517Z,58.73
2022-11-14T20:49:58.157Z,58.96
2022-11-14T20:52:25.878Z,58.95
2022-11-14T20:54:53.566Z,58.89
2022-11-14T20:57:21.200Z,58.83
2022-11-14T20:59:48.899Z,58.95
2022-11-14T21:02:17.883Z,59.27
2022-11-14T21:04:45.613Z,59.20
2022-11-14T21:07:13.303Z,59.16
2022-11-14T21:09:40.981Z,59.18
2022-11-14T21:12:08.846Z,59.21
2022-11-14T21:14:36.540Z,59.04
2022-11-14T21:17:04.436Z,58.91
2022-11-14T21:19:33.401Z,59.18
2022-11-14T21:22:01.072Z,59.25
2022-11-14T21:24:28.791Z,59.17
2022-11-14T21:26:56.469Z,59.12
2022-11-14T21:29:24.193Z,59.39
2022-11-14T21:31:51.886Z,59.29
2022-11-14T21:34:19.588Z,59.54
2022-11-14T21:36:48.776Z,59.38
2022-11-14T21:39:17.722Z,59.25
2022-11-14T21:41:48.260Z,59.48
2022-11-14T21:44:17.817Z,59.26
2022-11-14T21:46:48.471Z,59.55
2022-11-14T21:49:16.471Z,59.45
2022-11-14T21:51:44.223Z,59.63
2022-11-14T21:54:13.241Z,59.53
2022-11-14T21:56:40.923Z,59.62
2022-11-14T21:59:14.873Z,59.72
2022-11-14T22:02:02.111Z,59.64
2022-11-14T22:04:30.190Z,59.66
2022-11-14T22:06:58.447Z,59.60
2022-11-14T22:09:29.308Z,59.74
2022-11-14T22:11:57.631Z,59.98
2022-11-14T22:14:25.632Z,59.60
2022-11-14T22:16:53.334Z,59.87
2022-11-14T22:19:21.601Z,59.91
2022-11-14T22:21:49.760Z,59.96
2022-11-14T22:24:17.547Z,59.88
2022-11-14T22:26:46.632Z,59.93
2022-11-14T22:29:14.281Z,60.13
2022-11-14T22:31:41.985Z,60.22
2022-11-14T22:34:09.679Z,59.97
2022-11-14T22:36:37.425Z,60.35
2022-11-14T22:39:05.542Z,60.16
2022-11-14T22:41:34.381Z,60.50
2022-11-14T22:44:03.402Z,60.63
2022-11-14T22:46:31.136Z,60.58
2022-11-14T22:48:59.199Z,60.54
2022-11-14T22:51:28.325Z,60.56
2022-11-14T22:53:57.860Z,60.79
2022-11-14T22:56:28.026Z,60.84
2022-11-14T22:58:56.473Z,60.88
2022-11-14T23:01:27.664Z,60.85
2022-11-14T23:03:56.691Z,60.89
2022-11-14T23:06:25.409Z,60.97
2022-11-14T23:08:53.434Z,60.99
2022-11-14T23:11:22.950Z,61.18
2022-11-14T23:13:52.522Z,61.20
2022-11-14T23:16:21.679Z,61.20
2022-11-14T23:18:51.932Z,61.46
2022-11-14T23:21:21.965Z,61.38
2022-11-14T23:23:53.718Z,61.49
2022-11-14T23:26:21.792Z,61.44
2022-11-14T23:28:49.711Z,61.33
2022-11-14T23:31:19.361Z,61.69
2022-11-14T23:33:47.324Z,61.68
2022-11-14T23:36:16.824Z,61.50
2022-11-14T23:38:44.715Z,61.86
2022-11-14T23:41:17.823Z,61.52
2022-11-14T23:43:45.989Z,61.83
2022-11-14T23:46:14.054Z,61.81
2022-11-14T23:48:41.877Z,61.90
2022-11-14T23:51:10.631Z,61.74
2022-11-14T23:53:39.745Z,62.17
2022-11-14T23:56:07.912Z,61.90
2022-11-14T23:58:35.633Z,62.09
